sensor_id;sensor_type;location;lat;lon;timestamp;P1;P2;P0
74436;PMS7003;62868;52.360;30.424;2023-02-17T00:01:30;2;0.7;0.7
74436;PMS7003;62868;52.360;30.424;2023-02-17T00:06:33;3.3;1.5;1
74436;PMS7003;62868;52.360;30.424;2023-02-17T00:11:55;3.7;1.7;1.3
74436;PMS7003;62868;52.360;30.424;2023-02-17T00:16:35;1.7;1.3;1
74436;PMS7003;62868;52.360;30.424;2023-02-17T00:21:45;2.7;1.3;1
74436;PMS7003;62868;52.360;30.424;2023-02-17T00:26:10;0.8;0.8;0.5
74436;PMS7003;62868;52.360;30.424;2023-02-17T00:31:20;2.3;1.7;1
74436;PMS7003;62868;52.360;30.424;2023-02-17T00:36:35;2.3;1.3;0.7
74436;PMS7003;62868;52.360;30.424;2023-02-17T00:41:10;3.3;1.7;0.7
74436;PMS7003;62868;52.360;30.424;2023-02-17T00:46:46;1.8;1.8;1
74436;PMS7003;62868;52.360;30.424;2023-02-17T00:51:21;2;1.7;0.7
74436;PMS7003;62868;52.360;30.424;2023-02-17T00:56:33;3.3;2.3;1
74436;PMS7003;62868;52.360;30.424;2023-02-17T01:01:21;2.3;0.7;0.7
74436;PMS7003;62868;52.360;30.424;2023-02-17T01:06:57;2.3;2.3;1
74436;PMS7003;62868;52.360;30.424;2023-02-17T01:11:15;1.7;0.7;0.7
74436;PMS7003;62868;52.360;30.424;2023-02-17T01:16:36;1;0.3;0.3
74436;PMS7003;62868;52.360;30.424;2023-02-17T01:21:23;1.3;1;0.3
74436;PMS7003;62868;52.360;30.424;2023-02-17T01:26:23;1.8;1.3;0.5
74436;PMS7003;62868;52.360;30.424;2023-02-17T01:31:34;0.3;0;0
74436;PMS7003;62868;52.360;30.424;2023-02-17T01:36:21;1;0.7;0.7
74436;PMS7003;62868;52.360;30.424;2023-02-17T01:41:55;2;1;0.7
74436;PMS7003;62868;52.360;30.424;2023-02-17T01:46:57;1.5;0;0
74436;PMS7003;62868;52.360;30.424;2023-02-17T01:51:32;0.3;0;0
74436;PMS7003;62868;52.360;30.424;2023-02-17T01:56:49;0.7;0.7;0
74436;PMS7003;62868;52.360;30.424;2023-02-17T02:01:58;2;1;0.8
74436;PMS7003;62868;52.360;30.424;2023-02-17T02:06:22;1.3;1;0.7
74436;PMS7003;62868;52.360;30.424;2023-02-17T02:11:21;1.7;1;0.7
74436;PMS7003;62868;52.360;30.424;2023-02-17T02:16:58;2.7;2.3;1.3
74436;PMS7003;62868;52.360;30.424;2023-02-17T02:21:39;2.3;1.3;1
74436;PMS7003;62868;52.360;30.424;2023-02-17T02:26:16;3;1.3;0.7
74436;PMS7003;62868;52.360;30.424;2023-02-17T02:31:14;2;1.7;1
74436;PMS7003;62868;52.360;30.424;2023-02-17T02:36:42;2.7;1.3;1
74436;PMS7003;62868;52.360;30.424;2023-02-17T02:41:48;2.3;1;1
74436;PMS7003;62868;52.360;30.424;2023-02-17T02:46:31;2;1;0.3
74436;PMS7003;62868;52.360;30.424;2023-02-17T02:51:58;2.7;1.7;1
74436;PMS7003;62868;52.360;30.424;2023-02-17T02:56:33;2;1;1
74436;PMS7003;62868;52.360;30.424;2023-02-17T03:01:59;2.8;1.5;1
74436;PMS7003;62868;52.360;30.424;2023-02-17T03:06:10;2;1.3;1
74436;PMS7003;62868;52.360;30.424;2023-02-17T03:11:45;1.3;0.7;0.7
74436;PMS7003;62868;52.360;30.424;2023-02-17T03:16:32;1.7;1;0.7
74436;PMS7003;62868;52.360;30.424;2023-02-17T03:21:37;2.5;1.8;1
74436;PMS7003;62868;52.360;30.424;2023-02-17T03:26:41;2.7;1.7;1
74436;PMS7003;62868;52.360;30.424;2023-02-17T03:31:09;4.7;2;1.7
74436;PMS7003;62868;52.360;30.424;2023-02-17T03:36:57;5.3;3;1.7
74436;PMS7003;62868;52.360;30.424;2023-02-17T03:41:09;9.3;7.5;4.5
74436;PMS7003;62868;52.360;30.424;2023-02-17T03:46:55;13;9;5
74436;PMS7003;62868;52.360;30.424;2023-02-17T03:51:35;10.3;7.7;4.3
74436;PMS7003;62868;52.360;30.424;2023-02-17T03:56:41;8.3;5;3.5
74436;PMS7003;62868;52.360;30.424;2023-02-17T04:01:10;6.7;4.3;2
74436;PMS7003;62868;52.360;30.424;2023-02-17T04:06:45;4.7;2.7;1.7
74436;PMS7003;62868;52.360;30.424;2023-02-17T04:11:29;3.7;2.3;1.3
74436;PMS7003;62868;52.360;30.424;2023-02-17T04:16:41;3.8;1.3;0.8
74436;PMS7003;62868;52.360;30.424;2023-02-17T04:21:43;4;2.7;1
74436;PMS7003;62868;52.360;30.424;2023-02-17T04:26:57;1;0.7;0.3
74436;PMS7003;62868;52.360;30.424;2023-02-17T04:31:57;2.3;0.7;0.3
74436;PMS7003;62868;52.360;30.424;2023-02-17T04:36:29;2.3;1.8;1.3
74436;PMS7003;62868;52.360;30.424;2023-02-17T04:41:47;1;0.7;0.7
74436;PMS7003;62868;52.360;30.424;2023-02-17T04:46:09;2;1;1
74436;PMS7003;62868;52.360;30.424;2023-02-17T04:51:43;2;1.7;0.7
74436;PMS7003;62868;52.360;30.424;2023-02-17T04:56:21;1.8;1;0.8
74436;PMS7003;62868;52.360;30.424;2023-02-17T05:01:55;2;1;0.3
74436;PMS7003;62868;52.360;30.424;2023-02-17T05:06:09;2.7;1.3;0.7
74436;PMS7003;62868;52.360;30.424;2023-02-17T05:11:33;2.7;2.3;1.3
74436;PMS7003;62868;52.360;30.424;2023-02-17T05:16:44;4.3;2.3;1
74436;PMS7003;62868;52.360;30.424;2023-02-17T05:21:57;4.7;2.3;1.3
74436;PMS7003;62868;52.360;30.424;2023-02-17T05:26:55;4.3;3.7;2.3
74436;PMS7003;62868;52.360;30.424;2023-02-17T05:31:41;3;2;2
74436;PMS7003;62868;52.360;30.424;2023-02-17T05:36:57;4;2.5;1.5
74436;PMS7003;62868;52.360;30.424;2023-02-17T05:41:35;4;3.3;2
74436;PMS7003;62868;52.360;30.424;2023-02-17T05:46:41;2.3;2.3;1
74436;PMS7003;62868;52.360;30.424;2023-02-17T05:51:45;3.3;3;1.8
74436;PMS7003;62868;52.360;30.424;2023-02-17T05:56:45;2.7;1.7;1
74436;PMS7003;62868;52.360;30.424;2023-02-17T06:01:21;2.3;1.7;0.7
74436;PMS7003;62868;52.360;30.424;2023-02-17T06:06:55;1.3;1;1
74436;PMS7003;62868;52.360;30.424;2023-02-17T06:11:32;1;0.8;0.3
74436;PMS7003;62868;52.360;30.424;2023-02-17T06:16:57;3;1;0.7
74436;PMS7003;62868;52.360;30.424;2023-02-17T06:21:43;3;1.7;1.3
74436;PMS7003;62868;52.360;30.424;2023-02-17T06:26:34;2.3;1.7;1
74436;PMS7003;62868;52.360;30.424;2023-02-17T06:31:09;2.3;1.5;0.8
74436;PMS7003;62868;52.360;30.424;2023-02-17T06:36:21;2.7;2;1
74436;PMS7003;62868;52.360;30.424;2023-02-17T06:41:41;2.7;2;1
74436;PMS7003;62868;52.360;30.424;2023-02-17T06:46:09;1.7;1.3;1
74436;PMS7003;62868;52.360;30.424;2023-02-17T06:51:17;2.3;1.5;0.5
74436;PMS7003;62868;52.360;30.424;2023-02-17T06:56:21;3.3;2.3;1.3
74436;PMS7003;62868;52.360;30.424;2023-02-17T07:01:53;5.7;3.3;2.3
74436;PMS7003;62868;52.360;30.424;2023-02-17T07:06:09;3.7;2;1
74436;PMS7003;62868;52.360;30.424;2023-02-17T07:11:30;3.5;2;1.5
74436;PMS7003;62868;52.360;30.424;2023-02-17T07:16:48;4.7;3;2
74436;PMS7003;62868;52.360;30.424;2023-02-17T07:21:20;4.3;3.3;2.3
74436;PMS7003;62868;52.360;30.424;2023-02-17T07:26:53;3.7;2.7;2
74436;PMS7003;62868;52.360;30.424;2023-02-17T07:31:19;4.5;4.3;3
74436;PMS7003;62868;52.360;30.424;2023-02-17T07:36:55;4;3.3;2
74436;PMS7003;62868;52.360;30.424;2023-02-17T07:41:55;5;3.7;3.3
74436;PMS7003;62868;52.360;30.424;2023-02-17T07:46:31;4;2;1.5
74436;PMS7003;62868;52.360;30.424;2023-02-17T07:51:57;4.7;2;1.7
74436;PMS7003;62868;52.360;30.424;2023-02-17T07:56:58;4.7;2.7;1.7
74436;PMS7003;62868;52.360;30.424;2023-02-17T08:01:43;3.7;3.3;1.7
74436;PMS7003;62868;52.360;30.424;2023-02-17T08:06:22;1.8;1.5;1
74436;PMS7003;62868;52.360;30.424;2023-02-17T08:11:55;3;1.7;1
74436;PMS7003;62868;52.360;30.424;2023-02-17T08:16:21;3;2;1.3
74436;PMS7003;62868;52.360;30.424;2023-02-17T08:21:09;2.7;1.3;1.3
74436;PMS7003;62868;52.360;30.424;2023-02-17T08:26:20;2.3;1.8;1.3
74436;PMS7003;62868;52.360;30.424;2023-02-17T08:31:42;3.3;3.3;2.3
74436;PMS7003;62868;52.360;30.424;2023-02-17T08:36:47;2;1.7;1
74436;PMS7003;62868;52.360;30.424;2023-02-17T08:41:33;4.7;3.3;1.3
74436;PMS7003;62868;52.360;30.424;2023-02-17T08:46:57;4.3;3.5;1.5
74436;PMS7003;62868;52.360;30.424;2023-02-17T08:51:58;4.7;3.7;2.7
74436;PMS7003;62868;52.360;30.424;2023-02-17T08:56:09;4;3.3;1.7
74436;PMS7003;62868;52.360;30.424;2023-02-17T09:01:22;3;2.3;1.3
74436;PMS7003;62868;52.360;30.424;2023-02-17T09:06:56;3.8;1.8;1.5
74436;PMS7003;62868;52.360;30.424;2023-02-17T09:11:10;3.7;2.7;1.3
74436;PMS7003;62868;52.360;30.424;2023-02-17T09:16:34;3.3;2;1.3
74436;PMS7003;62868;52.360;30.424;2023-02-17T09:21:24;2;1.3;1
74436;PMS7003;62868;52.360;30.424;2023-02-17T09:26:44;2.5;1.8;1
74436;PMS7003;62868;52.360;30.424;2023-02-17T09:31:45;1;1;1
74436;PMS7003;62868;52.360;30.424;2023-02-17T09:36:11;2;1.7;1.7
74436;PMS7003;62868;52.360;30.424;2023-02-17T09:41:57;3.3;2;1.3
74436;PMS7003;62868;52.360;30.424;2023-02-17T09:46:34;6;5;3.3
74436;PMS7003;62868;52.360;30.424;2023-02-17T09:51:57;22.7;16.7;8.7
74436;PMS7003;62868;52.360;30.424;2023-02-17T09:56:23;24.7;19.3;11.3
74436;PMS7003;62868;52.360;30.424;2023-02-17T10:01:46;19.8;15;9
74436;PMS7003;62868;52.360;30.424;2023-02-17T10:06:11;15;12;7
74436;PMS7003;62868;52.360;30.424;2023-02-17T10:11:34;9;6.3;5.3
74436;PMS7003;62868;52.360;30.424;2023-02-17T10:16:44;8;5;3
74436;PMS7003;62868;52.360;30.424;2023-02-17T10:21:45;5.8;3.3;1.8
74436;PMS7003;62868;52.360;30.424;2023-02-17T10:26:59;17;10.3;5.3
74436;PMS7003;62868;52.360;30.424;2023-02-17T10:31:46;10;6.3;3.7
74436;PMS7003;62868;52.360;30.424;2023-02-17T10:37:02;8.3;6;4
74436;PMS7003;62868;52.360;30.424;2023-02-17T10:41:32;7;3.8;2.8
74436;PMS7003;62868;52.360;30.424;2023-02-17T10:47:03;9.7;6;3
74436;PMS7003;62868;52.360;30.424;2023-02-17T10:51:49;12;9.7;6
74436;PMS7003;62868;52.360;30.424;2023-02-17T10:56:33;7.7;4.7;3
74436;PMS7003;62868;52.360;30.424;2023-02-17T11:02:11;10.8;6.5;4
74436;PMS7003;62868;52.360;30.424;2023-02-17T11:06:49;5.7;3.7;2.3
74436;PMS7003;62868;52.360;30.424;2023-02-17T11:12:05;3;2;2
74436;PMS7003;62868;52.360;30.424;2023-02-17T11:17:11;4;3.3;2.3
74436;PMS7003;62868;52.360;30.424;2023-02-17T11:21:32;3.5;1.8;1.3
74436;PMS7003;62868;52.360;30.424;2023-02-17T11:26:54;2.7;2.3;1.3
74436;PMS7003;62868;52.360;30.424;2023-02-17T11:31:33;4.3;1.7;1
74436;PMS7003;62868;52.360;30.424;2023-02-17T11:37:05;2;1.5;1.3
74436;PMS7003;62868;52.360;30.424;2023-02-17T11:41:18;2;1.3;0.7
74436;PMS7003;62868;52.360;30.424;2023-02-17T11:46:13;1;1;1
74436;PMS7003;62868;52.360;30.424;2023-02-17T11:52:07;1.3;1.3;0.3
74436;PMS7003;62868;52.360;30.424;2023-02-17T11:56:11;5;3;2
74436;PMS7003;62868;52.360;30.424;2023-02-17T12:02:10;4.3;3;2.3
74436;PMS7003;62868;52.360;30.424;2023-02-17T12:06:50;5;2.7;2
74436;PMS7003;62868;52.360;30.424;2023-02-17T12:11:13;2.7;1.7;1.7
74436;PMS7003;62868;52.360;30.424;2023-02-17T12:17:04;2.5;1.8;1.3
74436;PMS7003;62868;52.360;30.424;2023-02-17T12:21:11;2.7;2;1.3
74436;PMS7003;62868;52.360;30.424;2023-02-17T12:27:05;3.7;1.7;1
74436;PMS7003;62868;52.360;30.424;2023-02-17T12:31:52;2.7;2.7;1.3
74436;PMS7003;62868;52.360;30.424;2023-02-17T12:36:10;3.5;2.3;1.8
74436;PMS7003;62868;52.360;30.424;2023-02-17T12:42:05;2.7;1.3;1.3
74436;PMS7003;62868;52.360;30.424;2023-02-17T12:46:18;2.7;2.3;1
74436;PMS7003;62868;52.360;30.424;2023-02-17T12:52:05;2.7;1.7;1
74436;PMS7003;62868;52.360;30.424;2023-02-17T12:57:04;2.5;2.3;1.5
74436;PMS7003;62868;52.360;30.424;2023-02-17T13:01:32;3.3;1.7;1.3
74436;PMS7003;62868;52.360;30.424;2023-02-17T13:07:06;2.7;1.3;1
74436;PMS7003;62868;52.360;30.424;2023-02-17T13:11:24;3.7;2;1.7
74436;PMS7003;62868;52.360;30.424;2023-02-17T13:16:47;4.8;2;2
74436;PMS7003;62868;52.360;30.424;2023-02-17T13:22:01;6.3;5;4
74436;PMS7003;62868;52.360;30.424;2023-02-17T13:26:34;5.3;3.7;3.3
74436;PMS7003;62868;52.360;30.424;2023-02-17T13:32:02;4;2.5;1.5
74436;PMS7003;62868;52.360;30.424;2023-02-17T13:36:22;3.3;2.7;1
74436;PMS7003;62868;52.360;30.424;2023-02-17T13:41:48;4.3;3.3;2
74436;PMS7003;62868;52.360;30.424;2023-02-17T13:47:10;5.7;4;2.7
74436;PMS7003;62868;52.360;30.424;2023-02-17T13:51:35;5.5;2.5;1.8
74436;PMS7003;62868;52.360;30.424;2023-02-17T13:57:20;3;2;1.7
74436;PMS7003;62868;52.360;30.424;2023-02-17T14:01:12;5;3.3;2
74436;PMS7003;62868;52.360;30.424;2023-02-17T14:06:50;3.3;3;3
74436;PMS7003;62868;52.360;30.424;2023-02-17T14:12:06;3.5;2;1.3
74436;PMS7003;62868;52.360;30.424;2023-02-17T14:16:34;3.7;2.7;2
74436;PMS7003;62868;52.360;30.424;2023-02-17T14:22:06;2.7;2.3;1.7
74436;PMS7003;62868;52.360;30.424;2023-02-17T14:26:11;1.7;1;0.7
74436;PMS7003;62868;52.360;30.424;2023-02-17T14:31:48;3;2;1.3
74436;PMS7003;62868;52.360;30.424;2023-02-17T14:37:14;4.7;3.3;1.7
74436;PMS7003;62868;52.360;30.424;2023-02-17T14:41:22;2.3;1.7;0.7
74436;PMS7003;62868;52.360;30.424;2023-02-17T14:47:04;2.7;1.3;1
74436;PMS7003;62868;52.360;30.424;2023-02-17T14:51:10;4.3;3;1.5
74436;PMS7003;62868;52.360;30.424;2023-02-17T14:56:35;2;2;1.3
74436;PMS7003;62868;52.360;30.424;2023-02-17T15:01:30;2;1.3;1
74436;PMS7003;62868;52.360;30.424;2023-02-17T15:06:33;3.7;2;1.7
74436;PMS7003;62868;52.360;30.424;2023-02-17T15:12:04;1.8;1.8;1.3
74436;PMS7003;62868;52.360;30.424;2023-02-17T15:16:21;3;1.7;1.3
74436;PMS7003;62868;52.360;30.424;2023-02-17T15:21:48;2.7;2;1.7
74436;PMS7003;62868;52.360;30.424;2023-02-17T15:26:52;3.3;2.5;1.3
74436;PMS7003;62868;52.360;30.424;2023-02-17T15:31:36;4;2;1
74436;PMS7003;62868;52.360;30.424;2023-02-17T15:37:07;1.7;1.3;1
74436;PMS7003;62868;52.360;30.424;2023-02-17T15:41:10;4;3.7;2.7
74436;PMS7003;62868;52.360;30.424;2023-02-17T15:46:50;4.5;4.3;3
74436;PMS7003;62868;52.360;30.424;2023-02-17T15:52:08;4;2.7;2.3
74436;PMS7003;62868;52.360;30.424;2023-02-17T15:56:35;3.7;3.3;2
74436;PMS7003;62868;52.360;30.424;2023-02-17T16:02:02;4.7;3.3;2.7
74436;PMS7003;62868;52.360;30.424;2023-02-17T16:06:20;3.5;2.8;1.3
74436;PMS7003;62868;52.360;30.424;2023-02-17T16:11:46;2.7;1.3;1
74436;PMS7003;62868;52.360;30.424;2023-02-17T16:17:04;4.7;3.3;1.7
74436;PMS7003;62868;52.360;30.424;2023-02-17T16:21:10;3;2.7;2.3
74436;PMS7003;62868;52.360;30.424;2023-02-17T16:27:04;2.5;2.5;1.8
74436;PMS7003;62868;52.360;30.424;2023-02-17T16:31:36;3.7;2.3;1.7
74436;PMS7003;62868;52.360;30.424;2023-02-17T16:37:09;3.3;3.3;2
74436;PMS7003;62868;52.360;30.424;2023-02-17T16:42:08;4.3;2;1
74436;PMS7003;62868;52.360;30.424;2023-02-17T16:46:34;4.3;2.5;2.3
74436;PMS7003;62868;52.360;30.424;2023-02-17T16:52:06;4;2.7;2.3
74436;PMS7003;62868;52.360;30.424;2023-02-17T16:56:14;2.7;2.7;1.7
74436;PMS7003;62868;52.360;30.424;2023-02-17T17:01:36;4.3;4;2
74436;PMS7003;62868;52.360;30.424;2023-02-17T17:06:36;4.5;3;1.8
74436;PMS7003;62868;52.360;30.424;2023-02-17T17:11:10;6.7;3.7;1.7
74436;PMS7003;62868;52.360;30.424;2023-02-17T17:17:07;3.3;2.7;1.3
74436;PMS7003;62868;52.360;30.424;2023-02-17T17:21:10;3.8;3.3;1.8
74436;PMS7003;62868;52.360;30.424;2023-02-17T17:27:02;6.3;4.7;3.7
74436;PMS7003;62868;52.360;30.424;2023-02-17T17:31:10;5.3;4.3;2.7
74436;PMS7003;62868;52.360;30.424;2023-02-17T17:36:11;3.7;3.3;2
74436;PMS7003;62868;52.360;30.424;2023-02-17T17:41:12;4.3;3;2
74436;PMS7003;62868;52.360;30.424;2023-02-17T17:46:10;5.3;2.7;1.7
74436;PMS7003;62868;52.360;30.424;2023-02-17T17:51:33;4.3;3.3;2
74436;PMS7003;62868;52.360;30.424;2023-02-17T17:56:25;8;3.3;2
74436;PMS7003;62868;52.360;30.424;2023-02-17T18:01:20;4.3;3;2.5
74436;PMS7003;62868;52.360;30.424;2023-02-17T18:07:04;6.3;5.3;3
74436;PMS7003;62868;52.360;30.424;2023-02-17T18:11:10;6.7;6;4.3
74436;PMS7003;62868;52.360;30.424;2023-02-17T18:16:50;3.3;2.7;2
74436;PMS7003;62868;52.360;30.424;2023-02-17T18:21:10;5;4.8;3.5
74436;PMS7003;62868;52.360;30.424;2023-02-17T18:26:33;6;4;2.7
74436;PMS7003;62868;52.360;30.424;2023-02-17T18:32:06;4.3;3.7;1.3
74436;PMS7003;62868;52.360;30.424;2023-02-17T18:36:10;2.7;2.7;1.7
74436;PMS7003;62868;52.360;30.424;2023-02-17T18:41:50;6.3;3.8;2.5
74436;PMS7003;62868;52.360;30.424;2023-02-17T18:46:10;6.3;5.3;4
74436;PMS7003;62868;52.360;30.424;2023-02-17T18:51:11;9;6.3;4.3
74436;PMS7003;62868;52.360;30.424;2023-02-17T18:57:06;9.3;6.3;4
74436;PMS7003;62868;52.360;30.424;2023-02-17T19:01:24;9;8.3;5.3
74436;PMS7003;62868;52.360;30.424;2023-02-17T19:06:50;10.7;7.3;4.3
74436;PMS7003;62868;52.360;30.424;2023-02-17T19:11:24;9;6.7;4.7
74436;PMS7003;62868;52.360;30.424;2023-02-17T19:16:24;8.3;6.5;4
74436;PMS7003;62868;52.360;30.424;2023-02-17T19:22:08;7.7;5.3;4.3
74436;PMS7003;62868;52.360;30.424;2023-02-17T19:26:36;7.7;6;4.3
74436;PMS7003;62868;52.360;30.424;2023-02-17T19:31:52;10;6.3;3.7
74436;PMS7003;62868;52.360;30.424;2023-02-17T19:36:24;8.8;5.3;3.5
74436;PMS7003;62868;52.360;30.424;2023-02-17T19:41:22;6.7;5;4
74436;PMS7003;62868;52.360;30.424;2023-02-17T19:47:08;5.7;4.3;3.3
74436;PMS7003;62868;52.360;30.424;2023-02-17T19:51:10;9;7.3;4.7
74436;PMS7003;62868;52.360;30.424;2023-02-17T19:56:52;10.8;7.5;5.5
74436;PMS7003;62868;52.360;30.424;2023-02-17T20:01:52;11;8.3;5.3
74436;PMS7003;62868;52.360;30.424;2023-02-17T20:07:06;9.3;6.3;4.3
74436;PMS7003;62868;52.360;30.424;2023-02-17T20:12:06;10;8.7;5.3
74436;PMS7003;62868;52.360;30.424;2023-02-17T20:16:10;11.5;8.5;5.5
74436;PMS7003;62868;52.360;30.424;2023-02-17T20:21:36;14.7;9.3;6
74436;PMS7003;62868;52.360;30.424;2023-02-17T20:26:10;13.3;10.3;6
74436;PMS7003;62868;52.360;30.424;2023-02-17T20:31:10;14;7.3;5.7
74436;PMS7003;62868;52.360;30.424;2023-02-17T20:37:08;12.5;8.8;5.8
74436;PMS7003;62868;52.360;30.424;2023-02-17T20:41:12;9.3;8;5
74436;PMS7003;62868;52.360;30.424;2023-02-17T20:46:50;11.3;9.3;5.7
74436;PMS7003;62868;52.360;30.424;2023-02-17T20:51:10;14.3;9.3;6
74436;PMS7003;62868;52.360;30.424;2023-02-17T20:56:36;12.8;10.5;6.5
74436;PMS7003;62868;52.360;30.424;2023-02-17T21:01:26;10.7;9.3;5.3
74436;PMS7003;62868;52.360;30.424;2023-02-17T21:06:13;14;11;5.7
74436;PMS7003;62868;52.360;30.424;2023-02-17T21:11:22;11.5;9.5;5.5
74436;PMS7003;62868;52.360;30.424;2023-02-17T21:16:22;11;9.3;5
74436;PMS7003;62868;52.360;30.424;2023-02-17T21:21:36;9.7;6.3;4.3
74436;PMS7003;62868;52.360;30.424;2023-02-17T21:27:08;10;7.7;5
74436;PMS7003;62868;52.360;30.424;2023-02-17T21:31:36;11.3;8.5;6
74436;PMS7003;62868;52.360;30.424;2023-02-17T21:37:08;12;8.3;5.3
74436;PMS7003;62868;52.360;30.424;2023-02-17T21:41:10;13.3;9;5.3
74436;PMS7003;62868;52.360;30.424;2023-02-17T21:46:10;10;8.3;5
74436;PMS7003;62868;52.360;30.424;2023-02-17T21:52:08;11.5;8.8;5
74436;PMS7003;62868;52.360;30.424;2023-02-17T21:56:37;9;8.3;5.3
74436;PMS7003;62868;52.360;30.424;2023-02-17T22:02:09;12;8.3;5.7
74436;PMS7003;62868;52.360;30.424;2023-02-17T22:06:24;13.7;11;7
74436;PMS7003;62868;52.360;30.424;2023-02-17T22:11:37;13.8;12;6.5
74436;PMS7003;62868;52.360;30.424;2023-02-17T22:17:06;12.3;10.3;7.3
74436;PMS7003;62868;52.360;30.424;2023-02-17T22:21:11;11.7;10;5.7
74436;PMS7003;62868;52.360;30.424;2023-02-17T22:26:52;14;10.7;6
74436;PMS7003;62868;52.360;30.424;2023-02-17T22:31:24;13.3;10.5;6.3
74436;PMS7003;62868;52.360;30.424;2023-02-17T22:36:50;11.7;9;5.7
74436;PMS7003;62868;52.360;30.424;2023-02-17T22:42:06;12.7;10.3;6.7
74436;PMS7003;62868;52.360;30.424;2023-02-17T22:46:10;10.3;8.7;5.3
74436;PMS7003;62868;52.360;30.424;2023-02-17T22:51:52;11.8;9;6
74436;PMS7003;62868;52.360;30.424;2023-02-17T22:56:36;16.3;11.3;6.7
74436;PMS7003;62868;52.360;30.424;2023-02-17T23:01:10;18;11.7;5.7
74436;PMS7003;62868;52.360;30.424;2023-02-17T23:07:06;14.5;12;7.3
74436;PMS7003;62868;52.360;30.424;2023-02-17T23:11:23;11.7;9.3;6.3
74436;PMS7003;62868;52.360;30.424;2023-02-17T23:16:52;14.7;10.7;7
74436;PMS7003;62868;52.360;30.424;2023-02-17T23:21:11;14.7;11;6.7
74436;PMS7003;62868;52.360;30.424;2023-02-17T23:26:22;15.5;13.3;8.8
74436;PMS7003;62868;52.360;30.424;2023-02-17T23:32:08;14.7;12;6.7
74436;PMS7003;62868;52.360;30.424;2023-02-17T23:36:10;15.3;13;7
74436;PMS7003;62868;52.360;30.424;2023-02-17T23:41:50;15;11.7;7.3
74436;PMS7003;62868;52.360;30.424;2023-02-17T23:46:10;13;11;6.5
74436;PMS7003;62868;52.360;30.424;2023-02-17T23:51:36;17;12;6.7
74436;PMS7003;62868;52.360;30.424;2023-02-17T23:57:08;15;12;7.7
